<?xml version="1.0" encoding="UTF-8" standalone="no" ?>
<gpx xmlns="http://www.topografix.com/GPX/1/1" xmlns:xsi="http://www.w3.org/2001/XMLSchema-instance" xsi:schemaLocation="http://www.topografix.com/GPX/1/1 http://www.topografix.com/GPX/1/1/gpx.xsd" version="1.1" creator="VisuGPX - https://www.visugpx.com">
  <metadata>
    <name>2015-01-31 Ski de fond La Ruchère</name>
    <desc><![CDATA[Neige un peu molle, beau temps froid, premier sur Arpison]]></desc>
  </metadata>
  <trk>
    <name><![CDATA[2015-01-31 Ski de fond La Ruchère]]></name>
    <trkseg>
      <trkpt lat="45.40912" lon="5.79686">
        <ele>1062.545677186</ele>
        <time>2015-01-31T08:17:28Z</time>
      </trkpt>
      <trkpt lat="45.40879" lon="5.79677">
        <ele>1108.869520694</ele>
        <time>2015-01-31T08:17:53Z</time>
      </trkpt>
      <trkpt lat="45.40876" lon="5.79676">
        <ele>1108.869520694</ele>
        <time>2015-01-31T08:18:03Z</time>
      </trkpt>
      <trkpt lat="45.40872" lon="5.79679">
        <ele>1108.869520694</ele>
        <time>2015-01-31T08:18:23Z</time>
      </trkpt>
      <trkpt lat="45.40872" lon="5.79679">
        <ele>1108.869520694</ele>
        <time>2015-01-31T08:18:32Z</time>
      </trkpt>
      <trkpt lat="45.40872" lon="5.79693">
        <ele>1133.710869619</ele>
        <time>2015-01-31T08:18:33Z</time>
      </trkpt>
      <trkpt lat="45.40868" lon="5.79697">
        <ele>1133.710869619</ele>
        <time>2015-01-31T08:18:43Z</time>
      </trkpt>
      <trkpt lat="45.40862" lon="5.79698">
        <ele>1151.228539306</ele>
        <time>2015-01-31T08:18:58Z</time>
      </trkpt>
      <trkpt lat="45.40858" lon="5.79697">
        <ele>1151.228539306</ele>
        <time>2015-01-31T08:19:05Z</time>
      </trkpt>
      <trkpt lat="45.40858" lon="5.79697">
        <ele>1151.228539306</ele>
        <time>2015-01-31T08:19:11Z</time>
      </trkpt>
      <trkpt lat="45.40857" lon="5.79697">
        <ele>1151.228539306</ele>
        <time>2015-01-31T08:19:18Z</time>
      </trkpt>
      <trkpt lat="45.40857" lon="5.79697">
        <ele>1151.228539306</ele>
        <time>2015-01-31T08:19:29Z</time>
      </trkpt>
      <trkpt lat="45.40857" lon="5.79697">
        <ele>1151.228539306</ele>
        <time>2015-01-31T08:20:00Z</time>
      </trkpt>
      <trkpt lat="45.40857" lon="5.79697">
        <ele>1151.228539306</ele>
        <time>2015-01-31T08:20:11Z</time>
      </trkpt>
      <trkpt lat="45.40857" lon="5.79697">
        <ele>1151.228539306</ele>
        <time>2015-01-31T08:20:13Z</time>
      </trkpt>
      <trkpt lat="45.40857" lon="5.79697">
        <ele>1151.228539306</ele>
        <time>2015-01-31T08:20:21Z</time>
      </trkpt>
      <trkpt lat="45.40856" lon="5.79697">
        <ele>1151.228539306</ele>
        <time>2015-01-31T08:20:48Z</time>
      </trkpt>
      <trkpt lat="45.40853" lon="5.79692">
        <ele>1164.742080844</ele>
        <time>2015-01-31T08:21:07Z</time>
      </trkpt>
      <trkpt lat="45.40829" lon="5.79645">
        <ele>1176.834237505</ele>
        <time>2015-01-31T08:21:23Z</time>
      </trkpt>
      <trkpt lat="45.40825" lon="5.79641">
        <ele>1176.834237505</ele>
        <time>2015-01-31T08:21:34Z</time>
      </trkpt>
      <trkpt lat="45.40793" lon="5.79595">
        <ele>1186.883326005</ele>
        <time>2015-01-31T08:21:48Z</time>
      </trkpt>
      <trkpt lat="45.40772" lon="5.79576">
        <ele>1196.466538365</ele>
        <time>2015-01-31T08:22:08Z</time>
      </trkpt>
      <trkpt lat="45.4076" lon="5.7956">
        <ele>1204.564939067</ele>
        <time>2015-01-31T08:22:17Z</time>
      </trkpt>
      <trkpt lat="45.40748" lon="5.7955">
        <ele>1211.121066974</ele>
        <time>2015-01-31T08:22:18Z</time>
      </trkpt>
      <trkpt lat="45.40739" lon="5.79536">
        <ele>1215.916815818</ele>
        <time>2015-01-31T08:22:25Z</time>
      </trkpt>
      <trkpt lat="45.40709" lon="5.79502">
        <ele>1220.780826632</ele>
        <time>2015-01-31T08:22:48Z</time>
      </trkpt>
      <trkpt lat="45.40695" lon="5.79476">
        <ele>1224.749584356</ele>
        <time>2015-01-31T08:23:09Z</time>
      </trkpt>
      <trkpt lat="45.40677" lon="5.7943">
        <ele>1196.921875</ele>
      </trkpt>
      <trkpt lat="45.407" lon="5.79359">
        <ele>1192.46875</ele>
      </trkpt>
      <trkpt lat="45.4069" lon="5.79308">
        <ele>1197.828125</ele>
      </trkpt>
      <trkpt lat="45.40646" lon="5.79224">
        <ele>1229.793705411</ele>
        <time>2015-01-31T08:25:04Z</time>
      </trkpt>
      <trkpt lat="45.40645" lon="5.79221">
        <ele>1229.793705411</ele>
        <time>2015-01-31T08:25:12Z</time>
      </trkpt>
      <trkpt lat="45.40645" lon="5.79187">
        <ele>1212.4765625</ele>
      </trkpt>
      <trkpt lat="45.40603" lon="5.79135">
        <ele>1234.70635809</ele>
        <time>2015-01-31T08:25:53Z</time>
      </trkpt>
      <trkpt lat="45.40577" lon="5.79111">
        <ele>1238.227499453</ele>
        <time>2015-01-31T08:26:05Z</time>
      </trkpt>
      <trkpt lat="45.40457" lon="5.79079">
        <ele>1240.877178029</ele>
        <time>2015-01-31T08:26:48Z</time>
      </trkpt>
      <trkpt lat="45.40406" lon="5.79055">
        <ele>1243.443654718</ele>
        <time>2015-01-31T08:27:05Z</time>
      </trkpt>
      <trkpt lat="45.4039" lon="5.79047">
        <ele>1245.976021042</ele>
        <time>2015-01-31T08:27:09Z</time>
      </trkpt>
      <trkpt lat="45.40372" lon="5.79047">
        <ele>1248.195204694</ele>
        <time>2015-01-31T08:27:15Z</time>
      </trkpt>
      <trkpt lat="45.40353" lon="5.79042">
        <ele>1249.852597984</ele>
        <time>2015-01-31T08:27:20Z</time>
      </trkpt>
      <trkpt lat="45.40329" lon="5.79057">
        <ele>1251.184537173</ele>
        <time>2015-01-31T08:27:25Z</time>
      </trkpt>
      <trkpt lat="45.40309" lon="5.79064">
        <ele>1252.09275741</ele>
        <time>2015-01-31T08:27:29Z</time>
      </trkpt>
      <trkpt lat="45.40306" lon="5.79064">
        <ele>1252.09275741</ele>
        <time>2015-01-31T08:27:35Z</time>
      </trkpt>
      <trkpt lat="45.40262" lon="5.79034">
        <ele>1252.634834347</ele>
        <time>2015-01-31T08:27:48Z</time>
      </trkpt>
      <trkpt lat="45.40256" lon="5.79032">
        <ele>1252.634834347</ele>
        <time>2015-01-31T08:27:58Z</time>
      </trkpt>
      <trkpt lat="45.40236" lon="5.79019">
        <ele>1252.128430406</ele>
        <time>2015-01-31T08:27:58Z</time>
      </trkpt>
      <trkpt lat="45.40216" lon="5.79006">
        <ele>1251.839382521</ele>
        <time>2015-01-31T08:28:05Z</time>
      </trkpt>
      <trkpt lat="45.40211" lon="5.78999">
        <ele>1251.839382521</ele>
        <time>2015-01-31T08:28:10Z</time>
      </trkpt>
      <trkpt lat="45.40206" lon="5.78994">
        <ele>1250.60705136</ele>
        <time>2015-01-31T08:28:15Z</time>
      </trkpt>
      <trkpt lat="45.40197" lon="5.78988">
        <ele>1249.368777671</ele>
        <time>2015-01-31T08:28:21Z</time>
      </trkpt>
      <trkpt lat="45.40184" lon="5.78971">
        <ele>1248.543730619</ele>
        <time>2015-01-31T08:28:25Z</time>
      </trkpt>
      <trkpt lat="45.40174" lon="5.78951">
        <ele>1247.53639473</ele>
        <time>2015-01-31T08:28:28Z</time>
      </trkpt>
      <trkpt lat="45.40167" lon="5.78937">
        <ele>1246.777598402</ele>
        <time>2015-01-31T08:28:36Z</time>
      </trkpt>
      <trkpt lat="45.40157" lon="5.78927">
        <ele>1245.832156482</ele>
        <time>2015-01-31T08:28:38Z</time>
      </trkpt>
      <trkpt lat="45.4015" lon="5.78916">
        <ele>1244.854668583</ele>
        <time>2015-01-31T08:28:48Z</time>
      </trkpt>
      <trkpt lat="45.40088" lon="5.78754">
        <ele>1244.129801592</ele>
        <time>2015-01-31T08:29:54Z</time>
      </trkpt>
      <trkpt lat="45.40087" lon="5.78751">
        <ele>1244.129801592</ele>
        <time>2015-01-31T08:30:00Z</time>
      </trkpt>
      <trkpt lat="45.39993" lon="5.78631">
        <ele>1243.92650585</ele>
        <time>2015-01-31T08:30:55Z</time>
      </trkpt>
      <trkpt lat="45.39982" lon="5.78619">
        <ele>1243.659505808</ele>
        <time>2015-01-31T08:31:00Z</time>
      </trkpt>
      <trkpt lat="45.39915" lon="5.78508">
        <ele>1242.919263959</ele>
        <time>2015-01-31T08:31:44Z</time>
      </trkpt>
      <trkpt lat="45.39914" lon="5.78497">
        <ele>1242.919263959</ele>
        <time>2015-01-31T08:32:00Z</time>
      </trkpt>
      <trkpt lat="45.39911" lon="5.78456">
        <ele>1242.170454142</ele>
        <time>2015-01-31T08:32:09Z</time>
      </trkpt>
      <trkpt lat="45.39886" lon="5.783">
        <ele>1243.567968808</ele>
        <time>2015-01-31T08:33:03Z</time>
      </trkpt>
      <trkpt lat="45.39856" lon="5.7823">
        <ele>1245.129857296</ele>
        <time>2015-01-31T08:33:38Z</time>
      </trkpt>
      <trkpt lat="45.39853" lon="5.7822">
        <ele>1245.129857296</ele>
        <time>2015-01-31T08:33:46Z</time>
      </trkpt>
      <trkpt lat="45.39842" lon="5.78204">
        <ele>1247.431987674</ele>
        <time>2015-01-31T08:33:56Z</time>
      </trkpt>
      <trkpt lat="45.39833" lon="5.78202">
        <ele>1249.706578526</ele>
        <time>2015-01-31T08:33:59Z</time>
      </trkpt>
      <trkpt lat="45.39827" lon="5.78198">
        <ele>1249.706578526</ele>
        <time>2015-01-31T08:34:05Z</time>
      </trkpt>
      <trkpt lat="45.3982" lon="5.78194">
        <ele>1252.397477176</ele>
        <time>2015-01-31T08:34:09Z</time>
      </trkpt>
      <trkpt lat="45.39807" lon="5.78184">
        <ele>1255.184923406</ele>
        <time>2015-01-31T08:34:15Z</time>
      </trkpt>
      <trkpt lat="45.39801" lon="5.7818">
        <ele>1255.184923406</ele>
        <time>2015-01-31T08:34:20Z</time>
      </trkpt>
      <trkpt lat="45.39797" lon="5.78176">
        <ele>1257.024030878</ele>
        <time>2015-01-31T08:34:25Z</time>
      </trkpt>
      <trkpt lat="45.39787" lon="5.78171">
        <ele>1258.126619496</ele>
        <time>2015-01-31T08:34:30Z</time>
      </trkpt>
      <trkpt lat="45.39775" lon="5.78159">
        <ele>1258.247655197</ele>
        <time>2015-01-31T08:34:35Z</time>
      </trkpt>
      <trkpt lat="45.3977" lon="5.78155">
        <ele>1258.247655197</ele>
        <time>2015-01-31T08:34:40Z</time>
      </trkpt>
      <trkpt lat="45.39769" lon="5.78154">
        <ele>1258.247655197</ele>
        <time>2015-01-31T08:34:45Z</time>
      </trkpt>
      <trkpt lat="45.39746" lon="5.78145">
        <ele>1257.313289321</ele>
        <time>2015-01-31T08:34:49Z</time>
      </trkpt>
      <trkpt lat="45.39729" lon="5.78141">
        <ele>1256.464149929</ele>
        <time>2015-01-31T08:34:55Z</time>
      </trkpt>
      <trkpt lat="45.3971" lon="5.7814">
        <ele>1255.104805881</ele>
        <time>2015-01-31T08:34:58Z</time>
      </trkpt>
      <trkpt lat="45.39706" lon="5.78078">
        <ele>1253.739926721</ele>
        <time>2015-01-31T08:35:13Z</time>
      </trkpt>
      <trkpt lat="45.39627" lon="5.77804">
        <ele>1251.629006523</ele>
        <time>2015-01-31T08:36:13Z</time>
      </trkpt>
      <trkpt lat="45.39605" lon="5.77808">
        <ele>1250.052537714</ele>
        <time>2015-01-31T08:36:22Z</time>
      </trkpt>
      <trkpt lat="45.39595" lon="5.77827">
        <ele>1248.227667595</ele>
        <time>2015-01-31T08:36:30Z</time>
      </trkpt>
      <trkpt lat="45.39595" lon="5.77827">
        <ele>1248.227667595</ele>
        <time>2015-01-31T08:36:35Z</time>
      </trkpt>
      <trkpt lat="45.39594" lon="5.77828">
        <ele>1248.227667595</ele>
        <time>2015-01-31T08:36:42Z</time>
      </trkpt>
      <trkpt lat="45.39533" lon="5.77809">
        <ele>1246.639107175</ele>
        <time>2015-01-31T08:37:08Z</time>
      </trkpt>
      <trkpt lat="45.39495" lon="5.77932">
        <ele>1243.623596513</ele>
        <time>2015-01-31T08:37:52Z</time>
      </trkpt>
      <trkpt lat="45.39331" lon="5.78043">
        <ele>1244.270211767</ele>
        <time>2015-01-31T08:40:08Z</time>
      </trkpt>
      <trkpt lat="45.39334" lon="5.78061">
        <ele>1245.435505534</ele>
        <time>2015-01-31T08:40:22Z</time>
      </trkpt>
      <trkpt lat="45.3937" lon="5.78246">
        <ele>1245.431742103</ele>
        <time>2015-01-31T08:41:00Z</time>
      </trkpt>
      <trkpt lat="45.39308" lon="5.78271">
        <ele>1245.105083284</ele>
        <time>2015-01-31T08:41:18Z</time>
      </trkpt>
      <trkpt lat="45.39307" lon="5.78271">
        <ele>1245.105083284</ele>
        <time>2015-01-31T08:41:27Z</time>
      </trkpt>
      <trkpt lat="45.39263" lon="5.7831">
        <ele>1244.635786732</ele>
        <time>2015-01-31T08:41:38Z</time>
      </trkpt>
      <trkpt lat="45.39209" lon="5.78347">
        <ele>1244.337715965</ele>
        <time>2015-01-31T08:42:06Z</time>
      </trkpt>
      <trkpt lat="45.39189" lon="5.78291">
        <ele>1244.645769367</ele>
        <time>2015-01-31T08:43:04Z</time>
      </trkpt>
      <trkpt lat="45.39189" lon="5.78291">
        <ele>1244.645769367</ele>
        <time>2015-01-31T08:43:08Z</time>
      </trkpt>
      <trkpt lat="45.39189" lon="5.78291">
        <ele>1244.645769367</ele>
        <time>2015-01-31T08:43:13Z</time>
      </trkpt>
      <trkpt lat="45.39189" lon="5.78291">
        <ele>1244.645769367</ele>
        <time>2015-01-31T08:43:19Z</time>
      </trkpt>
      <trkpt lat="45.3919" lon="5.78235">
        <ele>1247.139013461</ele>
        <time>2015-01-31T08:44:13Z</time>
      </trkpt>
      <trkpt lat="45.39155" lon="5.78175">
        <ele>1249.129177399</ele>
        <time>2015-01-31T08:44:50Z</time>
      </trkpt>
      <trkpt lat="45.39115" lon="5.78188">
        <ele>1252.420270067</ele>
        <time>2015-01-31T08:45:48Z</time>
      </trkpt>
      <trkpt lat="45.39073" lon="5.78179">
        <ele>1256.608170097</ele>
        <time>2015-01-31T08:46:45Z</time>
      </trkpt>
      <trkpt lat="45.39067" lon="5.78176">
        <ele>1256.608170097</ele>
        <time>2015-01-31T08:46:48Z</time>
      </trkpt>
      <trkpt lat="45.39067" lon="5.78175">
        <ele>1256.608170097</ele>
        <time>2015-01-31T08:46:56Z</time>
      </trkpt>
      <trkpt lat="45.38898" lon="5.78136">
        <ele>1265.274805004</ele>
        <time>2015-01-31T08:48:55Z</time>
      </trkpt>
      <trkpt lat="45.38897" lon="5.78128">
        <ele>1265.274805004</ele>
        <time>2015-01-31T08:48:59Z</time>
      </trkpt>
      <trkpt lat="45.38833" lon="5.78078">
        <ele>1272.050434193</ele>
        <time>2015-01-31T08:49:56Z</time>
      </trkpt>
      <trkpt lat="45.38828" lon="5.78077">
        <ele>1272.050434193</ele>
        <time>2015-01-31T08:49:59Z</time>
      </trkpt>
      <trkpt lat="45.38816" lon="5.78076">
        <ele>1278.967464627</ele>
        <time>2015-01-31T08:50:13Z</time>
      </trkpt>
      <trkpt lat="45.38791" lon="5.78063">
        <ele>1285.126120005</ele>
        <time>2015-01-31T08:50:43Z</time>
      </trkpt>
      <trkpt lat="45.3879" lon="5.78062">
        <ele>1285.126120005</ele>
        <time>2015-01-31T08:50:51Z</time>
      </trkpt>
      <trkpt lat="45.38782" lon="5.78066">
        <ele>1291.009227093</ele>
        <time>2015-01-31T08:50:57Z</time>
      </trkpt>
      <trkpt lat="45.38719" lon="5.78049">
        <ele>1298.368680214</ele>
        <time>2015-01-31T08:51:53Z</time>
      </trkpt>
      <trkpt lat="45.38717" lon="5.78049">
        <ele>1298.368680214</ele>
        <time>2015-01-31T08:52:00Z</time>
      </trkpt>
      <trkpt lat="45.38709" lon="5.78047">
        <ele>1307.074410868</ele>
        <time>2015-01-31T08:52:18Z</time>
      </trkpt>
      <trkpt lat="45.38639" lon="5.78025">
        <ele>1316.134432415</ele>
        <time>2015-01-31T08:52:59Z</time>
      </trkpt>
      <trkpt lat="45.38561" lon="5.77982">
        <ele>1325.646302563</ele>
        <time>2015-01-31T08:53:54Z</time>
      </trkpt>
      <trkpt lat="45.38481" lon="5.77961">
        <ele>1377.93359375</ele>
      </trkpt>
      <trkpt lat="45.38409" lon="5.77935">
        <ele>1381.43359375</ele>
      </trkpt>
      <trkpt lat="45.38311" lon="5.77934">
        <ele>1389.44140625</ele>
      </trkpt>
      <trkpt lat="45.38292" lon="5.77943">
        <ele>1337.000598835</ele>
        <time>2015-01-31T08:56:44Z</time>
      </trkpt>
      <trkpt lat="45.38282" lon="5.77941">
        <ele>1347.141834851</ele>
        <time>2015-01-31T08:56:49Z</time>
      </trkpt>
      <trkpt lat="45.38281" lon="5.7794">
        <ele>1347.141834851</ele>
        <time>2015-01-31T08:56:59Z</time>
      </trkpt>
      <trkpt lat="45.38256" lon="5.77924">
        <ele>1356.860861281</ele>
        <time>2015-01-31T08:57:10Z</time>
      </trkpt>
      <trkpt lat="45.38236" lon="5.77922">
        <ele>1366.16795791</ele>
        <time>2015-01-31T08:57:19Z</time>
      </trkpt>
      <trkpt lat="45.3821" lon="5.77915">
        <ele>1374.063722756</ele>
        <time>2015-01-31T08:57:31Z</time>
      </trkpt>
      <trkpt lat="45.38077" lon="5.77897">
        <ele>1384.099389744</ele>
        <time>2015-01-31T08:59:05Z</time>
      </trkpt>
      <trkpt lat="45.38074" lon="5.77896">
        <ele>1384.099389744</ele>
        <time>2015-01-31T08:59:10Z</time>
      </trkpt>
      <trkpt lat="45.38064" lon="5.77894">
        <ele>1392.921831814</ele>
        <time>2015-01-31T08:59:14Z</time>
      </trkpt>
      <trkpt lat="45.38059" lon="5.7789">
        <ele>1392.921831814</ele>
        <time>2015-01-31T08:59:20Z</time>
      </trkpt>
      <trkpt lat="45.38058" lon="5.77886">
        <ele>1392.921831814</ele>
        <time>2015-01-31T08:59:25Z</time>
      </trkpt>
      <trkpt lat="45.38051" lon="5.77889">
        <ele>1400.747355927</ele>
        <time>2015-01-31T08:59:29Z</time>
      </trkpt>
      <trkpt lat="45.38045" lon="5.77894">
        <ele>1400.747355927</ele>
        <time>2015-01-31T08:59:35Z</time>
      </trkpt>
      <trkpt lat="45.38048" lon="5.779">
        <ele>1407.779218075</ele>
        <time>2015-01-31T08:59:38Z</time>
      </trkpt>
      <trkpt lat="45.38047" lon="5.77896">
        <ele>1407.779218075</ele>
        <time>2015-01-31T08:59:47Z</time>
      </trkpt>
      <trkpt lat="45.38046" lon="5.77896">
        <ele>1407.779218075</ele>
        <time>2015-01-31T08:59:58Z</time>
      </trkpt>
      <trkpt lat="45.38028" lon="5.77894">
        <ele>1414.064019017</ele>
        <time>2015-01-31T09:01:03Z</time>
      </trkpt>
      <trkpt lat="45.38021" lon="5.77896">
        <ele>1414.064019017</ele>
        <time>2015-01-31T09:01:11Z</time>
      </trkpt>
      <trkpt lat="45.38017" lon="5.77897">
        <ele>1419.935758365</ele>
        <time>2015-01-31T09:01:14Z</time>
      </trkpt>
      <trkpt lat="45.38009" lon="5.7789">
        <ele>1424.984597564</ele>
        <time>2015-01-31T09:01:20Z</time>
      </trkpt>
      <trkpt lat="45.38008" lon="5.7789">
        <ele>1424.984597564</ele>
        <time>2015-01-31T09:01:27Z</time>
      </trkpt>
      <trkpt lat="45.37918" lon="5.77809">
        <ele>1434.168252608</ele>
        <time>2015-01-31T09:03:00Z</time>
      </trkpt>
      <trkpt lat="45.37917" lon="5.77809">
        <ele>1434.168252608</ele>
        <time>2015-01-31T09:03:03Z</time>
      </trkpt>
      <trkpt lat="45.37912" lon="5.77763">
        <ele>1435.92578125</ele>
      </trkpt>
      <trkpt lat="45.37904" lon="5.77724">
        <ele>1433.50390625</ele>
      </trkpt>
      <trkpt lat="45.37921" lon="5.77681">
        <ele>1431.2734375</ele>
      </trkpt>
      <trkpt lat="45.37959" lon="5.77648">
        <ele>1439.525382744</ele>
        <time>2015-01-31T09:04:09Z</time>
      </trkpt>
      <trkpt lat="45.37989" lon="5.77622">
        <ele>1444.071783749</ele>
        <time>2015-01-31T09:04:13Z</time>
      </trkpt>
      <trkpt lat="45.37973" lon="5.77599">
        <ele>1446.999771468</ele>
        <time>2015-01-31T09:05:05Z</time>
      </trkpt>
      <trkpt lat="45.37966" lon="5.77593">
        <ele>1446.999771468</ele>
        <time>2015-01-31T09:05:11Z</time>
      </trkpt>
      <trkpt lat="45.37951" lon="5.77608">
        <ele>1449.584827811</ele>
        <time>2015-01-31T09:05:13Z</time>
      </trkpt>
      <trkpt lat="45.37872" lon="5.77655">
        <ele>1452.433438416</ele>
        <time>2015-01-31T09:06:00Z</time>
      </trkpt>
      <trkpt lat="45.37779" lon="5.77599">
        <ele>1456.251475753</ele>
        <time>2015-01-31T09:07:06Z</time>
      </trkpt>
      <trkpt lat="45.37779" lon="5.77589">
        <ele>1456.251475753</ele>
        <time>2015-01-31T09:07:16Z</time>
      </trkpt>
      <trkpt lat="45.3778" lon="5.77577">
        <ele>1459.38290244</ele>
        <time>2015-01-31T09:07:25Z</time>
      </trkpt>
      <trkpt lat="45.37762" lon="5.77549">
        <ele>1440.375</ele>
      </trkpt>
      <trkpt lat="45.37709" lon="5.77526">
        <ele>1443.0625</ele>
      </trkpt>
      <trkpt lat="45.37683" lon="5.77521">
        <ele>1444.82421875</ele>
      </trkpt>
      <trkpt lat="45.37662" lon="5.77524">
        <ele>1462.170510073</ele>
        <time>2015-01-31T09:08:54Z</time>
      </trkpt>
      <trkpt lat="45.37528" lon="5.77411">
        <ele>1467.241020657</ele>
        <time>2015-01-31T09:11:05Z</time>
      </trkpt>
      <trkpt lat="45.37529" lon="5.77411">
        <ele>1467.241020657</ele>
        <time>2015-01-31T09:11:09Z</time>
      </trkpt>
      <trkpt lat="45.37528" lon="5.77411">
        <ele>1467.241020657</ele>
        <time>2015-01-31T09:11:13Z</time>
      </trkpt>
      <trkpt lat="45.37528" lon="5.7741">
        <ele>1467.241020657</ele>
        <time>2015-01-31T09:11:18Z</time>
      </trkpt>
      <trkpt lat="45.37528" lon="5.7741">
        <ele>1467.241020657</ele>
        <time>2015-01-31T09:11:23Z</time>
      </trkpt>
      <trkpt lat="45.37528" lon="5.7741">
        <ele>1467.241020657</ele>
        <time>2015-01-31T09:11:28Z</time>
      </trkpt>
      <trkpt lat="45.37528" lon="5.7741">
        <ele>1467.241020657</ele>
        <time>2015-01-31T09:11:33Z</time>
      </trkpt>
      <trkpt lat="45.37528" lon="5.7741">
        <ele>1467.241020657</ele>
        <time>2015-01-31T09:11:38Z</time>
      </trkpt>
      <trkpt lat="45.37528" lon="5.7741">
        <ele>1467.241020657</ele>
        <time>2015-01-31T09:11:43Z</time>
      </trkpt>
      <trkpt lat="45.37528" lon="5.7741">
        <ele>1467.241020657</ele>
        <time>2015-01-31T09:11:48Z</time>
      </trkpt>
      <trkpt lat="45.37528" lon="5.77409">
        <ele>1467.241020657</ele>
        <time>2015-01-31T09:11:53Z</time>
      </trkpt>
      <trkpt lat="45.37528" lon="5.7741">
        <ele>1467.241020657</ele>
        <time>2015-01-31T09:11:58Z</time>
      </trkpt>
      <trkpt lat="45.37528" lon="5.7741">
        <ele>1467.241020657</ele>
        <time>2015-01-31T09:12:03Z</time>
      </trkpt>
      <trkpt lat="45.37528" lon="5.77409">
        <ele>1467.241020657</ele>
        <time>2015-01-31T09:12:41Z</time>
      </trkpt>
      <trkpt lat="45.37528" lon="5.77409">
        <ele>1467.241020657</ele>
        <time>2015-01-31T09:12:44Z</time>
      </trkpt>
      <trkpt lat="45.37527" lon="5.7741">
        <ele>1467.241020657</ele>
        <time>2015-01-31T09:12:49Z</time>
      </trkpt>
      <trkpt lat="45.37525" lon="5.77409">
        <ele>1467.241020657</ele>
        <time>2015-01-31T09:12:55Z</time>
      </trkpt>
      <trkpt lat="45.37526" lon="5.77409">
        <ele>1467.241020657</ele>
        <time>2015-01-31T09:13:00Z</time>
      </trkpt>
      <trkpt lat="45.37526" lon="5.77408">
        <ele>1467.241020657</ele>
        <time>2015-01-31T09:13:06Z</time>
      </trkpt>
      <trkpt lat="45.37526" lon="5.77408">
        <ele>1467.241020657</ele>
        <time>2015-01-31T09:13:09Z</time>
      </trkpt>
      <trkpt lat="45.37526" lon="5.77408">
        <ele>1467.241020657</ele>
        <time>2015-01-31T09:13:15Z</time>
      </trkpt>
      <trkpt lat="45.37526" lon="5.77408">
        <ele>1467.241020657</ele>
        <time>2015-01-31T09:13:20Z</time>
      </trkpt>
      <trkpt lat="45.37526" lon="5.77408">
        <ele>1467.241020657</ele>
        <time>2015-01-31T09:13:25Z</time>
      </trkpt>
      <trkpt lat="45.37526" lon="5.77408">
        <ele>1467.241020657</ele>
        <time>2015-01-31T09:13:48Z</time>
      </trkpt>
      <trkpt lat="45.37526" lon="5.77408">
        <ele>1467.241020657</ele>
        <time>2015-01-31T09:14:04Z</time>
      </trkpt>
      <trkpt lat="45.37526" lon="5.77408">
        <ele>1467.241020657</ele>
        <time>2015-01-31T09:14:08Z</time>
      </trkpt>
      <trkpt lat="45.37526" lon="5.77408">
        <ele>1471.829232494</ele>
        <time>2015-01-31T09:14:38Z</time>
      </trkpt>
      <trkpt lat="45.37527" lon="5.77407">
        <ele>1471.829232494</ele>
        <time>2015-01-31T09:14:50Z</time>
      </trkpt>
      <trkpt lat="45.37527" lon="5.77408">
        <ele>1471.829232494</ele>
        <time>2015-01-31T09:14:56Z</time>
      </trkpt>
      <trkpt lat="45.37527" lon="5.77408">
        <ele>1471.829232494</ele>
        <time>2015-01-31T09:14:58Z</time>
      </trkpt>
      <trkpt lat="45.37527" lon="5.77408">
        <ele>1471.829232494</ele>
        <time>2015-01-31T09:15:05Z</time>
      </trkpt>
      <trkpt lat="45.37613" lon="5.77534">
        <ele>1474.672862988</ele>
        <time>2015-01-31T09:15:59Z</time>
      </trkpt>
      <trkpt lat="45.37666" lon="5.77634">
        <ele>1475.761502265</ele>
        <time>2015-01-31T09:16:05Z</time>
      </trkpt>
      <trkpt lat="45.3776" lon="5.77735">
        <ele>1474.657916389</ele>
        <time>2015-01-31T09:16:24Z</time>
      </trkpt>
      <trkpt lat="45.37784" lon="5.77767">
        <ele>1474.280845471</ele>
        <time>2015-01-31T09:16:38Z</time>
      </trkpt>
      <trkpt lat="45.37886" lon="5.77892">
        <ele>1445.87890625</ele>
      </trkpt>
      <trkpt lat="45.37939" lon="5.77962">
        <ele>1440.08203125</ele>
      </trkpt>
      <trkpt lat="45.37992" lon="5.78018">
        <ele>1435.9453125</ele>
      </trkpt>
      <trkpt lat="45.38019" lon="5.78017">
        <ele>1470.985893833</ele>
        <time>2015-01-31T09:18:00Z</time>
      </trkpt>
      <trkpt lat="45.38061" lon="5.78024">
        <ele>1466.74167438</ele>
        <time>2015-01-31T09:18:03Z</time>
      </trkpt>
      <trkpt lat="45.38287" lon="5.7813">
        <ele>1462.220644309</ele>
        <time>2015-01-31T09:19:30Z</time>
      </trkpt>
      <trkpt lat="45.38328" lon="5.78136">
        <ele>1457.613699777</ele>
        <time>2015-01-31T09:19:36Z</time>
      </trkpt>
      <trkpt lat="45.38338" lon="5.78137">
        <ele>1452.809267081</ele>
        <time>2015-01-31T09:19:43Z</time>
      </trkpt>
      <trkpt lat="45.38439" lon="5.78161">
        <ele>1402.67578125</ele>
      </trkpt>
      <trkpt lat="45.38482" lon="5.78189">
        <ele>1395.75</ele>
      </trkpt>
      <trkpt lat="45.38542" lon="5.78245">
        <ele>1390.68359375</ele>
      </trkpt>
      <trkpt lat="45.38585" lon="5.78268">
        <ele>1443.954975363</ele>
        <time>2015-01-31T09:20:13Z</time>
      </trkpt>
      <trkpt lat="45.38652" lon="5.78327">
        <ele>1369.95703125</ele>
      </trkpt>
      <trkpt lat="45.38673" lon="5.78337">
        <ele>1364.37109375</ele>
      </trkpt>
      <trkpt lat="45.38702" lon="5.78379">
        <ele>1357.86328125</ele>
      </trkpt>
      <trkpt lat="45.38777" lon="5.78392">
        <ele>1348.37890625</ele>
      </trkpt>
      <trkpt lat="45.38874" lon="5.78419">
        <ele>1331</ele>
      </trkpt>
      <trkpt lat="45.38932" lon="5.78411">
        <ele>1430.665596868</ele>
        <time>2015-01-31T09:21:00Z</time>
      </trkpt>
      <trkpt lat="45.38992" lon="5.78436">
        <ele>1313.0546875</ele>
      </trkpt>
      <trkpt lat="45.39014" lon="5.78468">
        <ele>1306.421875</ele>
      </trkpt>
      <trkpt lat="45.38993" lon="5.78501">
        <ele>1303.97265625</ele>
      </trkpt>
      <trkpt lat="45.38987" lon="5.78579">
        <ele>1291.375</ele>
      </trkpt>
      <trkpt lat="45.39045" lon="5.78632">
        <ele>1409.712500221</ele>
        <time>2015-01-31T09:21:53Z</time>
      </trkpt>
      <trkpt lat="45.39052" lon="5.78631">
        <ele>1409.712500221</ele>
        <time>2015-01-31T09:22:00Z</time>
      </trkpt>
      <trkpt lat="45.39232" lon="5.78768">
        <ele>1388.65100486</ele>
        <time>2015-01-31T09:23:09Z</time>
      </trkpt>
      <trkpt lat="45.39373" lon="5.78811">
        <ele>1369.865840733</ele>
        <time>2015-01-31T09:24:05Z</time>
      </trkpt>
      <trkpt lat="45.39465" lon="5.78725">
        <ele>1352.53134206</ele>
        <time>2015-01-31T09:24:38Z</time>
      </trkpt>
      <trkpt lat="45.39469" lon="5.78696">
        <ele>1335.012662064</ele>
        <time>2015-01-31T09:24:51Z</time>
      </trkpt>
      <trkpt lat="45.39467" lon="5.78682">
        <ele>1319.254471695</ele>
        <time>2015-01-31T09:24:53Z</time>
      </trkpt>
      <trkpt lat="45.39469" lon="5.78666">
        <ele>1304.745810702</ele>
        <time>2015-01-31T09:25:03Z</time>
      </trkpt>
      <trkpt lat="45.39647" lon="5.78391">
        <ele>1289.134769012</ele>
        <time>2015-01-31T09:26:04Z</time>
      </trkpt>
      <trkpt lat="45.39763" lon="5.78333">
        <ele>1259.62109375</ele>
      </trkpt>
      <trkpt lat="45.39863" lon="5.78385">
        <ele>1274.568474255</ele>
        <time>2015-01-31T09:26:48Z</time>
      </trkpt>
      <trkpt lat="45.39866" lon="5.78371">
        <ele>1262.455278607</ele>
        <time>2015-01-31T09:27:00Z</time>
      </trkpt>
      <trkpt lat="45.39822" lon="5.78213">
        <ele>1250.632620007</ele>
        <time>2015-01-31T09:27:56Z</time>
      </trkpt>
      <trkpt lat="45.39805" lon="5.78175">
        <ele>1240.409755495</ele>
        <time>2015-01-31T09:28:11Z</time>
      </trkpt>
      <trkpt lat="45.39607" lon="5.78112">
        <ele>1233.891389947</ele>
        <time>2015-01-31T09:29:06Z</time>
      </trkpt>
      <trkpt lat="45.39521" lon="5.77943">
        <ele>1227.373024399</ele>
        <time>2015-01-31T09:29:36Z</time>
      </trkpt>
      <trkpt lat="45.39456" lon="5.78102">
        <ele>1216.51943835</ele>
        <time>2015-01-31T09:30:35Z</time>
      </trkpt>
      <trkpt lat="45.39459" lon="5.78108">
        <ele>1216.51943835</ele>
        <time>2015-01-31T09:30:45Z</time>
      </trkpt>
      <trkpt lat="45.39461" lon="5.78139">
        <ele>1206.706428427</ele>
        <time>2015-01-31T09:30:51Z</time>
      </trkpt>
      <trkpt lat="45.39463" lon="5.78166">
        <ele>1199.032956137</ele>
        <time>2015-01-31T09:31:04Z</time>
      </trkpt>
      <trkpt lat="45.39442" lon="5.78209">
        <ele>1192.780561901</ele>
        <time>2015-01-31T09:31:16Z</time>
      </trkpt>
      <trkpt lat="45.39258" lon="5.78329">
        <ele>1188.431302699</ele>
        <time>2015-01-31T09:32:39Z</time>
      </trkpt>
      <trkpt lat="45.39235" lon="5.78348">
        <ele>1186.425321907</ele>
        <time>2015-01-31T09:32:55Z</time>
      </trkpt>
      <trkpt lat="45.39239" lon="5.78372">
        <ele>1185.433419527</ele>
        <time>2015-01-31T09:33:06Z</time>
      </trkpt>
      <trkpt lat="45.39236" lon="5.78379">
        <ele>1185.433419527</ele>
        <time>2015-01-31T09:33:16Z</time>
      </trkpt>
      <trkpt lat="45.39214" lon="5.78404">
        <ele>1185.661347165</ele>
        <time>2015-01-31T09:33:35Z</time>
      </trkpt>
      <trkpt lat="45.39197" lon="5.78428">
        <ele>1186.57485983</ele>
        <time>2015-01-31T09:34:01Z</time>
      </trkpt>
      <trkpt lat="45.3922" lon="5.78436">
        <ele>1188.396805161</ele>
        <time>2015-01-31T09:34:06Z</time>
      </trkpt>
      <trkpt lat="45.39226" lon="5.78436">
        <ele>1188.396805161</ele>
        <time>2015-01-31T09:34:09Z</time>
      </trkpt>
      <trkpt lat="45.39339" lon="5.78418">
        <ele>1190.177520871</ele>
        <time>2015-01-31T09:34:55Z</time>
      </trkpt>
      <trkpt lat="45.39351" lon="5.78417">
        <ele>1192.333648042</ele>
        <time>2015-01-31T09:35:07Z</time>
      </trkpt>
      <trkpt lat="45.39367" lon="5.78421">
        <ele>1195.393798326</ele>
        <time>2015-01-31T09:35:17Z</time>
      </trkpt>
      <trkpt lat="45.39395" lon="5.78426">
        <ele>1198.980156022</ele>
        <time>2015-01-31T09:35:38Z</time>
      </trkpt>
      <trkpt lat="45.39429" lon="5.78453">
        <ele>1201.011532023</ele>
        <time>2015-01-31T09:35:54Z</time>
      </trkpt>
      <trkpt lat="45.3946" lon="5.78455">
        <ele>1205.040099127</ele>
        <time>2015-01-31T09:36:07Z</time>
      </trkpt>
      <trkpt lat="45.39484" lon="5.7846">
        <ele>1210.027980002</ele>
        <time>2015-01-31T09:36:25Z</time>
      </trkpt>
      <trkpt lat="45.39501" lon="5.78459">
        <ele>1215.154939598</ele>
        <time>2015-01-31T09:36:42Z</time>
      </trkpt>
      <trkpt lat="45.39622" lon="5.78401">
        <ele>1219.66066961</ele>
        <time>2015-01-31T09:37:00Z</time>
      </trkpt>
      <trkpt lat="45.39641" lon="5.78385">
        <ele>1223.851403329</ele>
        <time>2015-01-31T09:37:05Z</time>
      </trkpt>
      <trkpt lat="45.39763" lon="5.78312">
        <ele>1228.011983502</ele>
        <time>2015-01-31T09:37:23Z</time>
      </trkpt>
      <trkpt lat="45.39829" lon="5.78396">
        <ele>1230.244974214</ele>
        <time>2015-01-31T09:37:53Z</time>
      </trkpt>
      <trkpt lat="45.39867" lon="5.78307">
        <ele>1230.239212621</ele>
        <time>2015-01-31T09:38:13Z</time>
      </trkpt>
      <trkpt lat="45.39853" lon="5.78264">
        <ele>1231.892377558</ele>
        <time>2015-01-31T09:38:27Z</time>
      </trkpt>
      <trkpt lat="45.39852" lon="5.78262">
        <ele>1231.892377558</ele>
        <time>2015-01-31T09:38:28Z</time>
      </trkpt>
      <trkpt lat="45.39818" lon="5.78205">
        <ele>1234.19989077</ele>
        <time>2015-01-31T09:38:57Z</time>
      </trkpt>
      <trkpt lat="45.39801" lon="5.78177">
        <ele>1237.382478443</ele>
        <time>2015-01-31T09:39:05Z</time>
      </trkpt>
      <trkpt lat="45.39792" lon="5.78167">
        <ele>1240.489728158</ele>
        <time>2015-01-31T09:39:10Z</time>
      </trkpt>
      <trkpt lat="45.39794" lon="5.78167">
        <ele>1256.40625</ele>
      </trkpt>
      <trkpt lat="45.3977" lon="5.78153">
        <ele>1257.6796875</ele>
      </trkpt>
      <trkpt lat="45.3973" lon="5.78138">
        <ele>1257.9453125</ele>
      </trkpt>
      <trkpt lat="45.3971" lon="5.78126">
        <ele>1255.8515625</ele>
      </trkpt>
      <trkpt lat="45.39706" lon="5.7808">
        <ele>1250.7421875</ele>
      </trkpt>
      <trkpt lat="45.39684" lon="5.77999">
        <ele>1243.71875</ele>
      </trkpt>
      <trkpt lat="45.39627" lon="5.77805">
        <ele>1237.56640625</ele>
      </trkpt>
      <trkpt lat="45.39604" lon="5.77807">
        <ele>1237.47265625</ele>
      </trkpt>
      <trkpt lat="45.39596" lon="5.77828">
        <ele>1237.63671875</ele>
      </trkpt>
      <trkpt lat="45.39575" lon="5.77898">
        <ele>1237.26171875</ele>
      </trkpt>
      <trkpt lat="45.39553" lon="5.77892">
        <ele>1238.2421875</ele>
      </trkpt>
      <trkpt lat="45.39507" lon="5.77925">
        <ele>1240.53515625</ele>
      </trkpt>
      <trkpt lat="45.39436" lon="5.77972">
        <ele>1243.42578125</ele>
      </trkpt>
      <trkpt lat="45.39455" lon="5.78104">
        <ele>1244.5546875</ele>
      </trkpt>
      <trkpt lat="45.39463" lon="5.78163">
        <ele>1246.02734375</ele>
      </trkpt>
      <trkpt lat="45.39441" lon="5.7821">
        <ele>1247.9140625</ele>
      </trkpt>
      <trkpt lat="45.39261" lon="5.78327">
        <ele>1252.15234375</ele>
      </trkpt>
      <trkpt lat="45.39223" lon="5.7834">
        <ele>1254.1640625</ele>
      </trkpt>
      <trkpt lat="45.39186" lon="5.78336">
        <ele>1258.0546875</ele>
      </trkpt>
      <trkpt lat="45.39201" lon="5.78302">
        <ele>1255.30078125</ele>
      </trkpt>
      <trkpt lat="45.39204" lon="5.78247">
        <ele>1259.05859375</ele>
      </trkpt>
      <trkpt lat="45.39201" lon="5.78212">
        <ele>1263.41796875</ele>
      </trkpt>
      <trkpt lat="45.39166" lon="5.78173">
        <ele>1271.96484375</ele>
      </trkpt>
      <trkpt lat="45.3912" lon="5.78185">
        <ele>1284.734375</ele>
      </trkpt>
      <trkpt lat="45.39147" lon="5.7828">
        <ele>1268.8515625</ele>
      </trkpt>
      <trkpt lat="45.39153" lon="5.7833">
        <ele>1265.296875</ele>
      </trkpt>
      <trkpt lat="45.39196" lon="5.78427">
        <ele>1265.85546875</ele>
      </trkpt>
      <trkpt lat="45.39224" lon="5.78438">
        <ele>1262.82421875</ele>
      </trkpt>
      <trkpt lat="45.39346" lon="5.7842">
        <ele>1267.3828125</ele>
      </trkpt>
      <trkpt lat="45.39427" lon="5.78452">
        <ele>1273.125</ele>
      </trkpt>
      <trkpt lat="45.39499" lon="5.78458">
        <ele>1276.24609375</ele>
      </trkpt>
      <trkpt lat="45.39604" lon="5.7841">
        <ele>1275.21875</ele>
      </trkpt>
      <trkpt lat="45.39764" lon="5.78336">
        <ele>1259.57421875</ele>
      </trkpt>
      <trkpt lat="45.39825" lon="5.78392">
        <ele>1252.21875</ele>
      </trkpt>
      <trkpt lat="45.39863" lon="5.78386">
        <ele>1246.8515625</ele>
      </trkpt>
      <trkpt lat="45.39913" lon="5.78501">
        <ele>1235.32421875</ele>
      </trkpt>
      <trkpt lat="45.3994" lon="5.78577">
        <ele>1233.02734375</ele>
      </trkpt>
      <trkpt lat="45.39988" lon="5.78605">
        <ele>1230.42578125</ele>
      </trkpt>
      <trkpt lat="45.40018" lon="5.78663">
        <ele>1229.703125</ele>
      </trkpt>
      <trkpt lat="45.4014" lon="5.78836">
        <ele>1215.85546875</ele>
      </trkpt>
      <trkpt lat="45.40146" lon="5.78896">
        <ele>1215.4921875</ele>
      </trkpt>
      <trkpt lat="45.40197" lon="5.78989">
        <ele>1214.7109375</ele>
      </trkpt>
      <trkpt lat="45.4032" lon="5.79061">
        <ele>1210.25390625</ele>
      </trkpt>
      <trkpt lat="45.40383" lon="5.79043">
        <ele>1208.3125</ele>
      </trkpt>
      <trkpt lat="45.40423" lon="5.79061">
        <ele>1211.5390625</ele>
      </trkpt>
      <trkpt lat="45.40515" lon="5.79092">
        <ele>1213.83984375</ele>
      </trkpt>
      <trkpt lat="45.40555" lon="5.79094">
        <ele>1211.28515625</ele>
      </trkpt>
      <trkpt lat="45.40642" lon="5.79181">
        <ele>1212.9765625</ele>
      </trkpt>
      <trkpt lat="45.40653" lon="5.79233">
        <ele>1210.03515625</ele>
      </trkpt>
      <trkpt lat="45.407" lon="5.79331">
        <ele>1194.828125</ele>
      </trkpt>
      <trkpt lat="45.407" lon="5.79362">
        <ele>1192.23828125</ele>
      </trkpt>
      <trkpt lat="45.40678" lon="5.79423">
        <ele>1195.87890625</ele>
      </trkpt>
      <trkpt lat="45.40685" lon="5.79462">
        <ele>1197.3515625</ele>
      </trkpt>
      <trkpt lat="45.4078" lon="5.79579">
        <ele>1177.3984375</ele>
      </trkpt>
      <trkpt lat="45.40876" lon="5.79673">
        <ele>1157.8359375</ele>
      </trkpt>
    </trkseg>
  </trk>
</gpx>